Time;durP1;ratioP1;P1;durP2;ratioP2;P2;SDS_P1;SDS_P2;PMS_P1;PMS_P2;Temp;Humidity;BMP_temperature;BMP_pressure;BME280_temperature;BME280_humidity;BME280_pressure;Samples;Min_cycle;Max_cycle;Signal;HPM_P1;HPM_P2
2022/11/09 00:00:41;;;;;;;32.55;19.40;;;;;;;6.22;87.60;100463.87;1766777;79;21034;-76
2022/11/09 00:03:08;;;;;;;28.47;19.67;;;;;;;6.19;87.47;100465.46;1775681;79;21568;-78
2022/11/09 00:05:34;;;;;;;30.02;20.00;;;;;;;6.12;87.47;100457.17;1762477;81;21009;-78
2022/11/09 00:08:03;;;;;;;23.42;17.60;;;;;;;6.13;87.35;100464.63;1810771;78;21030;-78
2022/11/09 00:10:29;;;;;;;28.35;17.95;;;;;;;6.20;87.12;100460.06;1807384;77;21158;-77
2022/11/09 00:12:56;;;;;;;24.70;17.60;;;;;;;6.17;87.03;100466.89;1812912;77;21061;-78
2022/11/09 00:15:23;;;;;;;24.80;17.77;;;;;;;6.12;86.99;100461.63;1752942;79;22007;-77
2022/11/09 00:17:50;;;;;;;24.75;16.97;;;;;;;6.08;87.01;100463.20;1805323;78;21578;-76
2022/11/09 00:20:16;;;;;;;27.85;16.48;;;;;;;6.16;86.71;100463.05;1791554;77;21644;-76
2022/11/09 00:22:49;;;;;;;23.45;15.90;;;;;;;6.18;86.51;100467.27;1814526;78;21013;-75
2022/11/09 00:25:16;;;;;;;23.27;16.15;;;;;;;6.13;86.44;100466.78;1773258;80;21128;-76
2022/11/09 00:27:44;;;;;;;16.75;13.32;;;;;;;6.08;86.43;100468.48;1758796;81;21447;-75
2022/11/09 00:30:11;;;;;;;20.27;13.88;;;;;;;6.16;86.30;100469.19;1759018;81;21058;-75
2022/11/09 00:32:38;;;;;;;20.15;14.28;;;;;;;6.20;85.90;100474.58;1742469;81;21069;-77
2022/11/09 00:35:08;;;;;;;21.37;13.58;;;;;;;6.16;85.96;100468.33;1741227;80;21019;-75
2022/11/09 00:37:34;;;;;;;25.95;15.13;;;;;;;6.12;86.04;100472.17;1803245;77;21017;-75
2022/11/09 00:40:02;;;;;;;19.12;12.98;;;;;;;6.17;85.98;100472.66;1805966;79;21126;-75
2022/11/09 00:42:29;;;;;;;22.50;14.87;;;;;;;6.21;85.84;100475.41;1807285;78;21069;-76
2022/11/09 00:44:56;;;;;;;18.80;14.15;;;;;;;6.17;85.90;100476.12;1801177;78;21057;-74
2022/11/09 00:47:22;;;;;;;19.70;13.13;;;;;;;6.13;85.89;100476.51;1785359;79;20998;-75
2022/11/09 00:49:49;;;;;;;17.67;12.68;;;;;;;6.12;85.91;100480.09;1816996;77;21025;-74
2022/11/09 00:52:16;;;;;;;18.40;13.38;;;;;;;6.20;85.79;100483.81;1757717;80;21510;-74
2022/11/09 00:54:43;;;;;;;20.40;13.32;;;;;;;6.19;85.79;100483.93;1778420;80;21058;-76
2022/11/09 00:57:12;;;;;;;20.15;12.93;;;;;;;6.14;85.81;100474.21;1776900;80;21005;-74
2022/11/09 00:59:41;;;;;;;23.07;12.90;;;;;;;6.09;85.94;100482.50;1775148;80;21081;-75
2022/11/09 01:02:07;;;;;;;24.35;13.62;;;;;;;6.12;85.83;100474.33;1774364;80;21020;-76
2022/11/09 01:04:35;;;;;;;34.55;14.73;;;;;;;6.23;85.53;100467.72;1772415;80;21041;-76
2022/11/09 01:07:02;;;;;;;37.40;16.50;;;;;;;6.21;85.47;100469.64;1766231;79;21017;-75
2022/11/09 01:09:29;;;;;;;40.70;19.77;;;;;;;6.20;85.54;100470.63;1765031;80;21041;-74
2022/11/09 01:11:56;;;;;;;39.90;26.70;;;;;;;6.19;85.53;100471.57;1811369;77;21102;-75
2022/11/09 01:14:23;;;;;;;40.48;19.62;;;;;;;6.17;85.50;100466.89;1810370;78;20994;-76
2022/11/09 01:16:50;;;;;;;37.80;18.37;;;;;;;6.22;85.23;100462.56;1804491;77;21218;-74
2022/11/09 01:19:16;;;;;;;35.23;16.07;;;;;;;6.35;84.63;100474.30;1816611;78;21002;-75
2022/11/09 01:21:46;;;;;;;26.33;14.25;;;;;;;6.33;84.54;100466.50;1821122;78;20962;-76
2022/11/09 01:24:12;;;;;;;22.42;13.00;;;;;;;6.29;84.51;100465.91;1819982;77;21015;-74
2022/11/09 01:26:40;;;;;;;19.73;13.65;;;;;;;6.24;84.44;100466.77;1806534;77;21041;-79
2022/11/09 01:29:06;;;;;;;27.35;14.47;;;;;;;6.21;84.65;100463.54;1808009;77;21274;-77
2022/11/09 01:31:33;;;;;;;25.70;14.45;;;;;;;6.24;84.70;100473.38;1822029;77;21076;-77
2022/11/09 01:34:01;;;;;;;28.57;12.82;;;;;;;6.32;84.50;100474.53;1821811;78;20996;-74
2022/11/09 01:36:28;;;;;;;29.63;15.60;;;;;;;6.26;84.70;100468.81;1823315;78;20971;-75
2022/11/09 01:38:57;;;;;;;26.97;16.02;;;;;;;6.23;84.94;100473.00;1820738;78;21013;-75
2022/11/09 01:41:26;;;;;;;32.58;15.75;;;;;;;6.18;85.18;100477.82;1807909;78;21162;-74
2022/11/09 01:44:12;;;;;;;26.05;14.70;;;;;;;6.21;85.30;100480.20;1815322;78;21025;-75
2022/11/09 01:46:58;;;;;;;31.37;15.88;;;;;;;6.33;85.08;100484.97;1816221;77;21006;-77
2022/11/09 01:49:40;;;;;;;27.93;14.68;;;;;;;6.29;85.19;100483.55;1810476;78;20967;-76
2022/11/09 01:52:21;;;;;;;20.10;13.43;;;;;;;6.24;85.29;100489.69;1819652;78;21529;-75
2022/11/09 01:54:56;;;;;;;25.88;13.83;;;;;;;6.19;85.41;100493.99;1815100;78;21088;-75
2022/11/09 01:57:32;;;;;;;35.70;16.93;;;;;;;6.22;85.32;100491.13;1794478;77;28358;-76
2022/11/09 02:00:06;;;;;;;36.93;20.23;;;;;;;6.27;85.09;100490.26;1807940;77;21026;-76
2022/11/09 02:02:36;;;;;;;27.58;17.77;;;;;;;6.25;85.29;100491.35;1810972;78;21045;-74
2022/11/09 02:05:07;;;;;;;54.63;24.23;;;;;;;6.20;85.45;100485.13;1811173;77;20973;-75
2022/11/09 02:07:36;;;;;;;67.53;26.68;;;;;;;6.17;85.63;100485.85;1811088;77;21158;-76
2022/11/09 02:10:34;;;;;;;32.10;19.90;;;;;;;6.21;85.71;100484.64;1818801;77;21102;-77
2022/11/09 02:13:01;;;;;;;33.80;19.55;;;;;;;6.32;85.52;100486.41;1804223;78;20986;-75
2022/11/09 02:15:28;;;;;;;40.12;20.55;;;;;;;6.29;85.63;100492.30;1812914;77;21046;-75
2022/11/09 02:17:56;;;;;;;59.30;36.33;;;;;;;6.25;85.75;100482.12;1814912;77;21502;-73
2022/11/09 02:20:23;;;;;;;35.58;18.92;;;;;;;6.23;85.94;100478.27;1797158;77;21125;-74
2022/11/09 02:22:51;;;;;;;33.83;20.15;;;;;;;6.33;85.74;100487.61;1784159;78;21019;-73
2022/11/09 02:25:18;;;;;;;34.80;18.55;;;;;;;6.37;85.45;100485.08;1810535;77;22947;-75
2022/11/09 02:27:46;;;;;;;54.50;29.12;;;;;;;6.33;85.51;100481.02;1805680;78;21009;-75
2022/11/09 02:30:14;;;;;;;30.15;21.37;;;;;;;6.28;85.63;100488.48;1797562;78;21009;-75
2022/11/09 02:32:42;;;;;;;31.07;17.80;;;;;;;6.24;85.75;100487.88;1819203;77;21528;-73
2022/11/09 02:35:09;;;;;;;34.98;19.45;;;;;;;6.32;85.58;100487.73;1815175;77;21025;-75
2022/11/09 02:37:47;;;;;;;42.23;20.88;;;;;;;6.36;85.37;100483.42;1799126;77;20992;-76
2022/11/09 02:40:25;;;;;;;36.45;20.80;;;;;;;6.30;85.54;100482.11;1799544;78;21095;-74
2022/11/09 02:42:52;;;;;;;47.85;36.30;;;;;;;6.25;85.81;100484.76;1817972;77;21035;-74
2022/11/09 02:45:20;;;;;;;35.75;22.40;;;;;;;6.19;86.03;100486.56;1825055;78;21077;-73
2022/11/09 02:47:47;;;;;;;30.60;19.35;;;;;;;6.24;86.25;100489.20;1827797;77;21045;-72
2022/11/09 02:50:14;;;;;;;30.12;18.82;;;;;;;6.32;85.90;100483.31;1770111;80;21580;-76
2022/11/09 02:52:42;;;;;;;34.35;20.60;;;;;;;6.30;85.91;100489.20;1773221;80;21014;-73
2022/11/09 02:55:09;;;;;;;36.35;23.80;;;;;;;6.25;86.00;100483.44;1764282;80;21017;-74
2022/11/09 02:57:37;;;;;;;35.20;23.52;;;;;;;6.19;85.99;100487.89;1753003;80;21247;-75
2022/11/09 03:00:07;;;;;;;33.63;19.23;;;;;;;6.13;86.13;100490.53;1754985;80;21044;-74
2022/11/09 03:02:34;;;;;;;28.00;17.62;;;;;;;6.18;86.15;100484.42;1755227;80;21108;-74
2022/11/09 03:05:02;;;;;;;38.95;23.18;;;;;;;6.22;86.08;100478.39;1772173;80;20990;-75
2022/11/09 03:07:31;;;;;;;28.83;22.17;;;;;;;6.19;86.15;100479.97;1751009;80;21653;-74
2022/11/09 03:09:59;;;;;;;32.38;19.73;;;;;;;6.11;86.19;100483.22;1763730;79;21624;-75
2022/11/09 03:12:29;;;;;;;29.27;19.90;;;;;;;6.05;86.52;100488.49;1744880;80;21075;-76
2022/11/09 03:14:59;;;;;;;27.52;18.67;;;;;;;6.11;86.21;100483.22;1740151;79;21694;-75
2022/11/09 03:17:28;;;;;;;27.35;17.92;;;;;;;6.12;85.96;100490.16;1758473;80;21009;-75
2022/11/09 03:19:54;;;;;;;26.93;19.45;;;;;;;6.05;86.34;100492.45;1729249;79;21652;-74
2022/11/09 03:22:21;;;;;;;24.87;18.45;;;;;;;5.87;86.62;100467.02;1732965;80;21888;-74
2022/11/09 03:24:50;;;;;;;27.62;17.85;;;;;;;5.94;86.88;100483.19;1737300;80;21066;-75
2022/11/09 03:27:17;;;;;;;30.23;18.60;;;;;;;5.96;87.11;100483.94;1765138;81;21002;-76
2022/11/09 03:29:45;;;;;;;26.42;20.72;;;;;;;6.07;86.80;100483.94;1760842;80;21016;-72
2022/11/09 03:32:12;;;;;;;26.97;19.90;;;;;;;6.06;86.81;100489.33;1763690;79;21120;-74
2022/11/09 03:34:39;;;;;;;45.38;25.10;;;;;;;6.01;86.83;100485.73;1773668;80;21088;-74
2022/11/09 03:37:06;;;;;;;40.92;22.95;;;;;;;5.95;86.95;100485.33;1755954;79;21084;-76
2022/11/09 03:39:32;;;;;;;32.20;19.70;;;;;;;6.01;86.94;100485.73;1757106;79;21791;-75
2022/11/09 03:41:59;;;;;;;26.73;17.65;;;;;;;6.09;86.63;100488.61;1770636;80;21011;-74
2022/11/09 03:44:25;;;;;;;34.35;25.30;;;;;;;6.07;86.50;100486.57;1766789;80;21057;-74
2022/11/09 03:46:52;;;;;;;27.65;19.32;;;;;;;6.00;86.68;100486.69;1764999;79;21169;-75
2022/11/09 03:49:18;;;;;;;32.10;18.98;;;;;;;5.96;86.84;100483.10;1745961;80;21085;-75
2022/11/09 03:51:45;;;;;;;24.50;16.75;;;;;;;5.97;86.96;100485.63;1759551;81;21570;-74
2022/11/09 03:54:11;;;;;;;27.30;18.98;;;;;;;6.08;86.79;100480.80;1764575;79;21025;-77
2022/11/09 03:56:40;;;;;;;28.45;21.60;;;;;;;6.07;86.84;100479.98;1757121;80;21527;-75
2022/11/09 03:59:06;;;;;;;31.10;21.50;;;;;;;6.02;87.02;100482.13;1752999;80;21316;-76
2022/11/09 04:01:34;;;;;;;110.57;89.35;;;;;;;5.97;87.12;100480.80;1798653;78;21017;-76
2022/11/09 04:04:00;;;;;;;61.75;40.17;;;;;;;5.93;87.28;100481.98;1811645;78;20998;-78
2022/11/09 04:06:27;;;;;;;51.28;27.82;;;;;;;5.95;87.12;100483.59;1821964;77;21061;-76
2022/11/09 04:08:54;;;;;;;112.62;77.42;;;;;;;6.03;86.74;100482.50;1816260;77;21592;-75
2022/11/09 04:11:21;;;;;;;79.17;65.57;;;;;;;6.00;86.72;100484.05;1814740;77;22494;-75
2022/11/09 04:13:47;;;;;;;51.85;27.73;;;;;;;5.94;86.89;100483.67;1814901;77;21013;-75
2022/11/09 04:16:14;;;;;;;33.63;18.15;;;;;;;5.87;87.06;100485.47;1819385;77;21090;-76
2022/11/09 04:18:41;;;;;;;25.75;17.50;;;;;;;5.89;87.10;100486.65;1822979;78;21081;-75
2022/11/09 04:21:07;;;;;;;27.27;18.45;;;;;;;5.99;86.75;100491.62;1820013;77;21016;-74
2022/11/09 04:23:34;;;;;;;24.27;16.27;;;;;;;5.96;86.80;100491.84;1820050;77;21119;-73
2022/11/09 04:26:00;;;;;;;27.70;18.55;;;;;;;5.91;86.91;100499.27;1799565;78;21017;-74
2022/11/09 04:28:27;;;;;;;25.35;14.78;;;;;;;5.85;86.93;100501.03;1825605;78;21041;-74
2022/11/09 04:30:53;;;;;;;18.23;13.18;;;;;;;5.84;86.88;100499.38;1816538;78;20990;-72
2022/11/09 04:33:20;;;;;;;23.40;14.90;;;;;;;5.92;86.57;100503.56;1810774;77;21394;-72
2022/11/09 04:35:47;;;;;;;23.57;16.52;;;;;;;5.87;86.61;100505.25;1803207;77;21302;-73
2022/11/09 04:38:14;;;;;;;22.25;16.25;;;;;;;5.82;86.97;100506.56;1823878;77;21001;-73
2022/11/09 04:40:41;;;;;;;21.30;14.63;;;;;;;5.77;87.17;100514.81;1812613;77;20969;-74
2022/11/09 04:43:11;;;;;;;21.90;15.50;;;;;;;5.77;87.35;100503.44;1822452;78;21022;-75
2022/11/09 04:45:39;;;;;;;21.97;15.03;;;;;;;5.86;87.04;100508.00;1822887;78;20986;-74
2022/11/09 04:48:06;;;;;;;23.15;15.85;;;;;;;5.86;87.13;100513.27;1814579;77;21460;-74
2022/11/09 04:50:34;;;;;;;25.45;16.37;;;;;;;5.80;87.30;100517.23;1802150;77;20989;-74
2022/11/09 04:53:12;;;;;;;24.52;16.95;;;;;;;5.76;87.45;100526.82;1817871;77;21088;-74
2022/11/09 04:55:39;;;;;;;19.67;14.70;;;;;;;5.77;87.59;100521.89;1815818;77;21152;-75
2022/11/09 04:58:06;;;;;;;19.10;15.45;;;;;;;5.88;87.32;100517.95;1820533;78;21039;-75
2022/11/09 05:00:33;;;;;;;19.00;15.10;;;;;;;5.86;87.33;100527.30;1800730;78;21252;-75
2022/11/09 05:03:01;;;;;;;25.65;17.20;;;;;;;5.81;87.43;100531.23;1803334;77;21088;-74
2022/11/09 05:05:28;;;;;;;20.97;15.90;;;;;;;5.78;87.51;100530.17;1818588;77;21013;-74
2022/11/09 05:07:55;;;;;;;24.43;15.08;;;;;;;5.78;87.48;100532.81;1807302;78;21030;-73
2022/11/09 05:10:22;;;;;;;22.37;15.08;;;;;;;5.87;87.14;100536.90;1799859;77;21073;-73
2022/11/09 05:12:49;;;;;;;21.33;14.30;;;;;;;5.86;87.04;100542.28;1810910;77;21171;-74
2022/11/09 05:15:16;;;;;;;22.48;15.68;;;;;;;5.80;87.22;100546.23;1808827;77;21017;-75
2022/11/09 05:17:43;;;;;;;23.73;13.80;;;;;;;5.75;87.42;100548.37;1812058;77;21014;-75
2022/11/09 05:20:11;;;;;;;22.00;14.25;;;;;;;5.78;87.43;100548.63;1804829;78;21108;-73
2022/11/09 05:25:26;;;;;;;20.70;16.00;;;;;;;5.86;87.21;100551.03;1805888;77;21330;-75
2022/11/09 05:27:52;;;;;;;21.23;15.55;;;;;;;5.83;87.34;100556.55;1812117;77;21029;-73
2022/11/09 05:30:19;;;;;;;19.02;14.50;;;;;;;5.81;87.35;100561.56;1802877;77;21061;-73
2022/11/09 05:32:47;;;;;;;25.12;15.83;;;;;;;5.85;87.27;100567.82;1805212;77;21041;-74
2022/11/09 05:35:13;;;;;;;23.27;13.68;;;;;;;5.98;86.92;100569.05;1804984;77;21496;-75
2022/11/09 05:37:40;;;;;;;20.65;15.32;;;;;;;5.98;86.82;100573.01;1809005;77;21815;-74
2022/11/09 05:40:08;;;;;;;22.17;16.42;;;;;;;5.96;86.77;100576.24;1811543;77;21420;-75
2022/11/09 05:42:38;;;;;;;21.73;17.45;;;;;;;5.93;86.81;100577.78;1805621;77;21065;-75
2022/11/09 05:45:07;;;;;;;22.32;15.93;;;;;;;5.91;86.90;100579.70;1808704;77;21060;-77
2022/11/09 05:47:38;;;;;;;19.82;15.70;;;;;;;5.97;86.72;100584.98;1809830;78;21232;-75
2022/11/09 05:50:07;;;;;;;18.48;15.60;;;;;;;6.09;86.42;100587.53;1803274;77;21769;-75
2022/11/09 05:52:33;;;;;;;19.92;15.72;;;;;;;6.12;86.36;100583.81;1818011;77;21123;-75
2022/11/09 05:55:00;;;;;;;21.12;17.10;;;;;;;6.10;86.46;100584.41;1804900;77;21045;-76
2022/11/09 05:57:27;;;;;;;23.35;15.85;;;;;;;6.12;86.45;100594.84;1804820;77;21037;-77
2022/11/09 05:59:54;;;;;;;19.37;16.02;;;;;;;6.14;86.46;100591.61;1806128;77;21068;-76
2022/11/09 06:02:20;;;;;;;19.17;15.85;;;;;;;6.28;86.13;100592.23;1754369;80;21178;-75
2022/11/09 06:04:46;;;;;;;20.45;16.80;;;;;;;6.37;85.64;100594.61;1745061;81;21027;-72
2022/11/09 06:07:13;;;;;;;20.32;16.40;;;;;;;6.35;85.58;100597.85;1751241;80;21018;-73
2022/11/09 06:09:39;;;;;;;20.92;17.52;;;;;;;6.34;85.53;100598.83;1746853;80;20994;-76
2022/11/09 06:12:06;;;;;;;22.30;17.27;;;;;;;6.33;85.60;100594.50;1747983;80;21062;-73
2022/11/09 06:14:34;;;;;;;18.40;15.60;;;;;;;6.41;85.49;100597.86;1759155;81;21570;-74
2022/11/09 06:17:01;;;;;;;18.60;15.90;;;;;;;6.55;85.14;100602.05;1749095;81;21037;-74
2022/11/09 06:19:27;;;;;;;22.07;16.95;;;;;;;6.57;84.97;100601.47;1747590;80;21095;-75
2022/11/09 06:21:55;;;;;;;22.25;17.48;;;;;;;6.56;84.91;100605.06;1745322;80;21037;-74
2022/11/09 06:24:21;;;;;;;25.62;18.57;;;;;;;6.56;84.83;100607.70;1745438;82;20994;-73
2022/11/09 06:26:48;;;;;;;24.40;17.10;;;;;;;6.57;84.73;100609.39;1741110;81;21527;-74
2022/11/09 06:29:14;;;;;;;20.92;16.62;;;;;;;6.67;84.60;100609.84;1732301;81;21611;-75
2022/11/09 06:31:41;;;;;;;23.50;17.20;;;;;;;6.79;84.42;100615.95;1746074;80;21061;-74
2022/11/09 06:34:09;;;;;;;21.42;18.02;;;;;;;6.82;84.19;100613.08;1748235;80;21708;-73
2022/11/09 06:36:35;;;;;;;22.32;19.32;;;;;;;6.86;84.25;100615.83;1760663;80;21077;-73
2022/11/09 06:39:03;;;;;;;20.82;17.35;;;;;;;6.92;84.16;100608.39;1747748;80;21146;-74
2022/11/09 06:41:30;;;;;;;24.15;16.93;;;;;;;7.02;83.84;100618.07;1772239;80;20993;-74
2022/11/09 06:43:56;;;;;;;25.17;17.75;;;;;;;7.19;83.54;100611.42;1781737;79;21043;-74
2022/11/09 06:46:23;;;;;;;21.77;18.87;;;;;;;7.23;83.17;100610.70;1831106;77;20985;-74
2022/11/09 06:48:49;;;;;;;30.17;20.35;;;;;;;7.25;83.11;100612.24;1831056;77;20998;-72
2022/11/09 06:51:16;;;;;;;27.90;19.90;;;;;;;7.26;82.96;100611.75;1794155;77;21632;-74
2022/11/09 06:53:44;;;;;;;26.60;20.02;;;;;;;7.26;82.81;100613.07;1809936;77;20989;-72
2022/11/09 06:56:10;;;;;;;25.27;21.10;;;;;;;7.35;82.81;100612.81;1808716;78;21069;-74
2022/11/09 06:58:37;;;;;;;26.60;20.65;;;;;;;7.45;82.66;100609.27;1814517;79;21018;-74
2022/11/09 07:01:12;;;;;;;26.82;22.07;;;;;;;7.48;82.60;100602.91;1800560;78;20990;-72
2022/11/09 07:03:39;;;;;;;31.97;23.40;;;;;;;7.48;82.53;100609.03;1783232;77;21548;-72
2022/11/09 07:06:08;;;;;;;25.82;20.52;;;;;;;7.48;82.53;100603.74;1806214;78;21107;-73
2022/11/09 07:08:35;;;;;;;30.12;21.33;;;;;;;7.57;82.31;100604.80;1810464;78;21013;-74
2022/11/09 07:11:12;;;;;;;28.47;21.33;;;;;;;7.73;81.84;100607.00;1819150;77;21056;-74
2022/11/09 07:13:38;;;;;;;27.17;22.00;;;;;;;7.74;81.47;100607.34;1819855;78;21031;-73
2022/11/09 07:16:07;;;;;;;26.15;21.82;;;;;;;7.75;81.63;100602.91;1822345;77;20986;-74
2022/11/09 07:18:35;;;;;;;27.55;19.92;;;;;;;7.78;81.83;100603.95;1819151;77;21095;-75
2022/11/09 07:21:04;;;;;;;27.52;21.37;;;;;;;7.84;81.28;100602.11;1818614;77;20982;-74
2022/11/09 07:23:32;;;;;;;29.07;22.90;;;;;;;7.99;81.24;100605.27;1815388;77;21220;-76
2022/11/09 07:25:58;;;;;;;32.10;23.45;;;;;;;8.13;80.53;100607.60;1799161;78;21021;-74
2022/11/09 07:28:26;;;;;;;33.02;25.90;;;;;;;8.16;80.12;100607.81;1826146;78;21124;-72
2022/11/09 07:30:53;;;;;;;35.78;27.45;;;;;;;8.18;80.02;100607.20;1832309;77;21058;-73
2022/11/09 07:33:21;;;;;;;29.00;23.85;;;;;;;8.21;79.94;100609.10;1814676;77;21446;-73
2022/11/09 07:35:48;;;;;;;35.60;24.35;;;;;;;8.32;79.92;100609.98;1820192;77;21012;-73
2022/11/09 07:38:18;;;;;;;32.67;24.65;;;;;;;8.50;79.65;100612.41;1822293;78;21309;-74
2022/11/09 07:40:45;;;;;;;32.95;24.43;;;;;;;8.58;79.14;100617.86;1817917;77;21116;-74
2022/11/09 07:43:13;;;;;;;29.65;23.02;;;;;;;8.64;78.98;100613.34;1819305;77;21516;-74
2022/11/09 07:45:40;;;;;;;33.25;24.32;;;;;;;8.72;78.85;100611.35;1790176;78;21009;-72
2022/11/09 07:48:10;;;;;;;24.67;18.30;;;;;;;8.80;79.10;100611.50;1834802;77;21030;-74
2022/11/09 07:50:38;;;;;;;23.52;19.73;;;;;;;8.93;78.13;100615.74;1819349;77;21002;-74
2022/11/09 07:53:07;;;;;;;24.63;18.32;;;;;;;9.10;77.81;100613.75;1826797;77;21233;-74
2022/11/09 07:55:34;;;;;;;26.68;19.95;;;;;;;9.17;77.80;100610.88;1819796;78;20993;-73
2022/11/09 07:58:05;;;;;;;26.73;18.23;;;;;;;9.28;77.45;100615.72;1823719;77;20997;-74
2022/11/09 08:00:35;;;;;;;29.87;19.05;;;;;;;9.35;76.25;100611.05;1830993;77;21591;-74
2022/11/09 08:03:01;;;;;;;22.67;18.27;;;;;;;9.41;75.70;100617.63;1826122;78;21541;-73
2022/11/09 08:05:28;;;;;;;20.97;16.93;;;;;;;9.44;75.75;100618.65;1828993;77;21111;-74
2022/11/09 08:07:59;;;;;;;19.40;16.73;;;;;;;9.46;74.67;100619.34;1840201;77;21029;-73
2022/11/09 08:10:26;;;;;;;19.35;16.75;;;;;;;9.56;75.30;100612.71;1844723;77;21003;-74
2022/11/09 08:12:56;;;;;;;25.52;18.73;;;;;;;9.68;74.65;100610.28;1782548;80;21002;-74
2022/11/09 08:15:24;;;;;;;22.62;17.82;;;;;;;9.73;75.04;100607.19;1792620;77;21021;-75
2022/11/09 08:17:52;;;;;;;21.57;15.93;;;;;;;9.81;74.90;100607.31;1807561;77;22707;-73
2022/11/09 08:20:20;;;;;;;18.27;16.00;;;;;;;9.92;74.50;100615.12;1807369;78;21320;-74
2022/11/09 08:22:47;;;;;;;19.42;17.12;;;;;;;10.00;73.93;100608.60;1807578;78;21080;-73
2022/11/09 08:25:13;;;;;;;20.80;17.65;;;;;;;10.10;74.06;100602.44;1807556;79;20990;-73
2022/11/09 08:27:54;;;;;;;24.85;19.05;;;;;;;10.20;74.94;100605.92;1810207;78;20986;-74
2022/11/09 08:30:21;;;;;;;19.87;17.27;;;;;;;10.37;74.08;100608.33;1804838;77;21877;-77
2022/11/09 08:32:48;;;;;;;22.82;17.73;;;;;;;10.57;73.24;100607.77;1804549;77;21463;-75
2022/11/09 08:35:20;;;;;;;21.33;17.12;;;;;;;10.74;72.35;100604.80;1813134;77;21025;-76
2022/11/09 08:37:48;;;;;;;16.70;14.38;;;;;;;10.85;72.79;100606.43;1808205;78;21037;-76
2022/11/09 08:40:18;;;;;;;21.52;15.25;;;;;;;11.04;70.26;100602.32;1813600;79;21029;-74
2022/11/09 08:42:45;;;;;;;20.32;14.50;;;;;;;11.20;71.86;100604.30;1813673;78;21776;-76
2022/11/09 08:45:12;;;;;;;14.20;11.95;;;;;;;11.35;71.49;100597.47;1808928;77;20987;-76
2022/11/09 08:47:40;;;;;;;15.43;11.48;;;;;;;11.57;71.80;100598.84;1807164;77;22140;-76
2022/11/09 08:50:07;;;;;;;13.55;9.38;;;;;;;11.86;69.54;100600.88;1811494;78;21045;-78
2022/11/09 08:52:34;;;;;;;15.25;10.53;;;;;;;12.07;67.92;100596.55;1813768;78;21127;-77
2022/11/09 08:55:01;;;;;;;13.68;9.58;;;;;;;12.30;67.23;100591.53;1811687;78;21092;-80
2022/11/09 08:57:27;;;;;;;13.38;9.73;;;;;;;12.55;67.07;100591.15;1803235;77;21457;-83
2022/11/09 08:59:54;;;;;;;9.60;8.18;;;;;;;12.83;65.02;100589.09;1810052;78;21503;-80
2022/11/09 09:02:22;;;;;;;10.88;8.58;;;;;;;13.18;64.31;100588.00;1807636;78;20983;-78
2022/11/09 09:04:50;;;;;;;9.75;7.33;;;;;;;13.63;63.52;100593.90;1786840;78;20982;-80
2022/11/09 09:07:16;;;;;;;9.78;7.33;;;;;;;14.10;60.90;100589.66;1810081;78;21621;-80
2022/11/09 09:09:43;;;;;;;9.25;7.33;;;;;;;14.44;59.79;100584.58;1824837;77;21025;-78
2022/11/09 09:12:09;;;;;;;17.05;7.30;;;;;;;14.79;58.47;100587.28;1813972;77;21080;-79
2022/11/09 09:14:36;;;;;;;10.53;7.00;;;;;;;15.01;58.22;100589.69;1815311;78;21362;-78
2022/11/09 09:17:02;;;;;;;10.98;7.05;;;;;;;15.30;57.65;100578.28;1824425;77;21043;-80
2022/11/09 09:19:31;;;;;;;9.30;6.55;;;;;;;15.59;55.79;100580.73;1811362;77;21813;-83
2022/11/09 09:22:00;;;;;;;12.18;7.53;;;;;;;15.95;56.64;100576.59;1818246;77;21028;-80
2022/11/09 09:24:27;;;;;;;8.68;7.17;;;;;;;16.34;54.58;100573.66;1806083;77;21103;-78
2022/11/09 09:26:53;;;;;;;9.30;7.37;;;;;;;16.70;52.27;100570.19;1805670;77;21446;-80
2022/11/09 09:29:20;;;;;;;7.80;6.90;;;;;;;16.90;52.37;100574.46;1813850;78;21126;-79
2022/11/09 09:31:48;;;;;;;11.70;8.45;;;;;;;17.01;51.81;100561.89;1820863;77;21082;-80
2022/11/09 09:34:14;;;;;;;11.03;8.00;;;;;;;17.15;52.41;100560.17;1828158;77;21590;-80
2022/11/09 09:36:41;;;;;;;11.50;8.43;;;;;;;17.37;52.14;100556.17;1801836;78;21400;-79
2022/11/09 09:39:08;;;;;;;9.85;8.55;;;;;;;17.78;52.12;100562.19;1818389;78;21002;-81
2022/11/09 09:41:40;;;;;;;12.55;8.60;;;;;;;18.39;51.70;100557.02;1824220;78;21013;-78
2022/11/09 09:44:34;;;;;;;11.08;7.90;;;;;;;19.12;50.98;100559.13;1817535;77;22320;-78
2022/11/09 09:47:23;;;;;;;11.43;8.15;;;;;;;19.79;49.50;100547.08;1780810;78;21571;-78
2022/11/09 09:50:07;;;;;;;9.75;8.75;;;;;;;20.46;47.89;100547.75;1807387;77;21504;-79
2022/11/09 09:53:11;;;;;;;13.10;9.00;;;;;;;20.90;47.56;100543.42;1823787;78;21077;-79
2022/11/09 09:55:42;;;;;;;11.38;8.95;;;;;;;21.21;45.88;100539.89;1819093;78;21466;-80
2022/11/09 09:58:15;;;;;;;14.33;8.80;;;;;;;21.36;44.77;100544.13;1806829;77;21506;-83
2022/11/09 10:00:41;;;;;;;;;;;;;;;21.55;44.18;100543.70;1830807;77;20915;-79
2022/11/09 10:03:16;;;;;;;12.82;8.50;;;;;;;21.72;43.46;100538.58;1813541;78;20173;-83
2022/11/09 10:06:00;;;;;;;9.60;7.37;;;;;;;21.67;42.82;100544.66;1823043;78;20966;-84
2022/11/09 10:08:48;;;;;;;10.43;7.83;;;;;;;21.58;42.78;100540.58;1803911;78;21068;-82
2022/11/09 10:11:38;;;;;;;9.63;6.97;;;;;;;21.53;43.18;100542.57;1821729;77;21530;-83
2022/11/09 10:14:38;;;;;;;9.70;6.72;;;;;;;21.34;42.71;100536.77;1803839;77;20986;-84
2022/11/09 10:17:39;;;;;;;11.10;6.90;;;;;;;21.40;43.77;100539.44;1809725;78;21496;-78
2022/11/09 10:20:32;;;;;;;8.15;6.28;;;;;;;21.78;43.48;100538.50;1813421;77;21014;-81
2022/11/09 10:23:38;;;;;;;7.42;5.55;;;;;;;22.15;42.65;100538.53;1788737;79;21005;-81
2022/11/09 10:26:18;;;;;;;7.45;5.08;;;;;;;22.30;40.90;100530.08;1807008;77;21740;-82
2022/11/09 10:28:58;;;;;;;6.67;4.85;;;;;;;22.12;40.92;100533.59;1807366;78;21053;-82
2022/11/09 10:31:25;;;;;;;6.33;4.42;;;;;;;22.01;41.81;100522.69;1810481;78;21072;-78
2022/11/09 10:33:56;;;;;;;7.10;4.85;;;;;;;22.28;40.97;100527.30;1805401;77;20990;-78
2022/11/09 10:36:42;;;;;;;4.78;4.15;;;;;;;22.55;41.17;100523.20;1813025;77;26698;-79
2022/11/09 10:39:11;;;;;;;7.83;4.25;;;;;;;22.76;40.00;100516.47;1805487;78;22097;-78
2022/11/09 10:41:56;;;;;;;6.92;4.33;;;;;;;22.80;40.86;100514.67;1807870;77;21568;-79
2022/11/09 10:44:42;;;;;;;6.03;4.40;;;;;;;23.03;40.49;100518.83;1803729;78;21014;-84
2022/11/09 10:47:27;;;;;;;5.92;4.60;;;;;;;23.30;39.24;100513.00;1798665;78;21513;-82
2022/11/09 10:50:53;;;;;;;5.55;4.37;;;;;;;23.48;39.42;100510.71;1797505;77;21268;-81
2022/11/09 10:53:38;;;;;;;6.35;4.40;;;;;;;23.72;38.76;100516.45;1781605;79;21274;-84
2022/11/09 10:56:26;;;;;;;5.25;4.67;;;;;;;23.62;38.75;100516.19;1807093;77;20951;-83
2022/11/09 10:59:55;;;;;;;5.17;4.67;;;;;;;23.40;38.86;100513.23;1805507;77;21006;-82
2022/11/09 11:02:44;;;;;;;6.17;5.05;;;;;;;23.06;39.54;100516.17;1809606;77;21503;-83
2022/11/09 11:05:30;;;;;;;6.30;4.92;;;;;;;22.36;40.30;100506.69;1793051;77;21525;-81
2022/11/09 11:08:26;;;;;;;6.90;4.42;;;;;;;22.21;40.58;100502.16;1795934;77;21296;-83
2022/11/09 11:11:27;;;;;;;5.25;4.47;;;;;;;22.37;40.50;100496.17;1799505;77;21470;-85
2022/11/09 11:14:25;;;;;;;5.60;4.00;;;;;;;22.72;39.84;100498.21;1808334;77;21053;-80
2022/11/09 11:17:26;;;;;;;6.10;4.10;;;;;;;22.63;39.61;100499.05;1791334;77;21025;-81
2022/11/09 11:20:33;;;;;;;5.25;3.50;;;;;;;22.42;39.54;100501.71;1796317;79;21573;-80
2022/11/09 11:24:47;;;;;;;6.15;4.30;;;;;;;22.53;40.16;100494.18;1860850;76;22609;-82
2022/11/09 11:27:55;;;;;;;5.05;3.90;;;;;;;22.94;38.74;100496.61;1832067;77;21037;-79
2022/11/09 11:30:40;;;;;;;6.53;3.92;;;;;;;23.09;38.99;100492.16;1776200;79;21122;-79
2022/11/09 11:33:30;;;;;;;7.80;4.05;;;;;;;23.59;38.53;100488.20;1846609;77;20886;-81
2022/11/09 11:36:33;;;;;;;7.40;4.10;;;;;;;24.20;37.97;100486.55;1808059;77;21522;-85
2022/11/09 11:39:42;;;;;;;4.92;3.80;;;;;;;24.61;36.92;100487.37;1841934;77;21002;-81
2022/11/09 11:42:46;;;;;;;5.85;4.00;;;;;;;24.44;36.59;100481.88;1843528;77;21053;-82